Logan, Utah
Current Conditions -  °F | °C
As of 12:51 AM on Sunday 26 Oct 2014 (Local Time) from KLGU Reporting Station
Few Clouds Few Clouds  
Wind Chill: 67°   Ceiling: Unl
Heat Index: 67°   Visibility: 10mi
Dew Point: 38°   Wind: 21mph
Humidity: 34%   Direction: 220°SW
Pressure: 29.85"   Gusts: 33mph
Location:  41.74°N, 111.83°W
Report Text: KLGU 260651Z AUTO 22018G29KT 10SM FEW095 19/03 A2985 RMK AO2 PK WND 21033/0622 SLP061 T01940033 402501011 TSNO
Loading
Personal Weather Stations






























Interactive Weather Map
Tropical Storm Tracking
New forecast layout! Learn more

10-Day Weather Forecast

Advertisements
Track Severe Weather on mobile